createdAt,value
2022-08-28T00:01:44.168Z,24.36
2022-08-28T00:04:12.426Z,24.34
2022-08-28T00:06:41.043Z,24.32
2022-08-28T00:09:09.900Z,24.31
2022-08-28T00:11:40.769Z,24.28
2022-08-28T00:14:10.606Z,24.25
2022-08-28T00:16:40.995Z,24.27
2022-08-28T00:19:11.096Z,24.24
2022-08-28T00:21:39.832Z,24.20
2022-08-28T00:24:08.133Z,24.20
2022-08-28T00:26:53.975Z,24.22
2022-08-28T00:29:22.917Z,24.22
2022-08-28T00:31:53.177Z,24.21
2022-08-28T00:34:21.648Z,24.23
2022-08-28T00:37:02.444Z,24.23
2022-08-28T00:39:31.498Z,24.22
2022-08-28T00:42:00.141Z,24.22
2022-08-28T00:44:29.563Z,24.21
2022-08-28T00:47:00.923Z,24.25
2022-08-28T00:49:30.353Z,24.29
2022-08-28T00:52:11.830Z,24.33
2022-08-28T00:54:45.682Z,24.37
2022-08-28T01:00:20.266Z,24.40
2022-08-28T01:02:50.231Z,24.44
2022-08-28T01:05:19.110Z,24.44
2022-08-28T01:07:48.593Z,24.46
2022-08-28T01:10:18.749Z,24.52
2022-08-28T01:12:48.148Z,24.57
2022-08-28T01:15:18.601Z,24.59
2022-08-28T01:17:49.591Z,24.60
2022-08-28T01:20:21.280Z,24.62
2022-08-28T01:22:54.403Z,24.61
2022-08-28T01:25:25.951Z,24.60
2022-08-28T01:27:54.374Z,24.57
2022-08-28T01:30:23.957Z,24.55
2022-08-28T01:32:54.563Z,24.50
2022-08-28T01:35:25.975Z,24.49
2022-08-28T01:37:54.968Z,24.45
2022-08-28T01:40:27.403Z,24.38
2022-08-28T01:42:56.206Z,24.33
2022-08-28T01:45:26.527Z,24.29
2022-08-28T01:47:57.560Z,24.27
2022-08-28T01:50:26.108Z,24.23
2022-08-28T01:52:55.191Z,24.20
2022-08-28T01:55:25.719Z,24.20
2022-08-28T01:57:55.675Z,24.20
2022-08-28T02:00:29.049Z,24.21
2022-08-28T02:02:58.799Z,24.20
2022-08-28T02:05:28.748Z,24.21
2022-08-28T02:07:57.544Z,24.19
2022-08-28T02:10:28.973Z,24.20
2022-08-28T02:12:59.035Z,24.20
2022-08-28T02:15:29.519Z,24.18
2022-08-28T02:17:58.218Z,24.18
2022-08-28T02:20:27.344Z,24.20
2022-08-28T02:22:55.836Z,24.16
2022-08-28T02:25:24.340Z,24.16
2022-08-28T02:27:54.259Z,24.18
2022-08-28T02:30:22.840Z,24.20
2022-08-28T02:32:51.476Z,24.19
2022-08-28T02:35:20.473Z,24.16
2022-08-28T02:37:50.118Z,24.15
2022-08-28T02:40:20.041Z,24.19
2022-08-28T02:42:48.544Z,24.18
2022-08-28T02:45:20.504Z,24.19
2022-08-28T02:47:49.045Z,24.20
2022-08-28T02:50:19.889Z,24.21
2022-08-28T02:52:49.293Z,24.25
2022-08-28T02:55:18.766Z,24.26
2022-08-28T02:57:47.577Z,24.25
2022-08-28T03:00:17.742Z,24.24
2022-08-28T03:02:48.024Z,24.23
2022-08-28T03:05:18.227Z,24.21
2022-08-28T03:07:46.467Z,24.26
2022-08-28T03:10:15.369Z,24.29
2022-08-28T03:12:43.892Z,24.28
2022-08-28T03:15:13.130Z,24.30
2022-08-28T03:17:41.913Z,24.27
2022-08-28T03:20:13.498Z,24.28
2022-08-28T03:22:59.466Z,24.27
2022-08-28T03:25:28.087Z,24.30
2022-08-28T03:27:56.992Z,24.35
2022-08-28T03:30:25.712Z,24.35
2022-08-28T03:32:54.334Z,24.36
2022-08-28T03:35:23.872Z,24.31
2022-08-28T03:37:52.285Z,24.29
2022-08-28T03:40:21.704Z,24.30
2022-08-28T03:42:53.569Z,24.30
2022-08-28T03:45:22.220Z,24.34
2022-08-28T03:47:51.704Z,24.37
2022-08-28T03:50:20.137Z,24.40
2022-08-28T03:52:49.856Z,24.45
2022-08-28T03:55:19.781Z,24.46
2022-08-28T03:57:48.572Z,24.50
2022-08-28T04:00:17.419Z,24.53
2022-08-28T04:02:46.387Z,24.54
2022-08-28T04:05:14.960Z,24.57
2022-08-28T04:07:43.394Z,24.63
2022-08-28T04:10:13.872Z,24.64
2022-08-28T04:12:42.248Z,24.67
2022-08-28T04:15:38.829Z,24.71
2022-08-28T04:18:08.252Z,24.68
2022-08-28T04:20:36.673Z,24.73
2022-08-28T04:23:06.113Z,24.73
2022-08-28T04:25:36.278Z,24.78
2022-08-28T04:28:05.044Z,24.83
2022-08-28T04:30:33.385Z,24.95
2022-08-28T04:33:08.516Z,25.02
2022-08-28T04:35:37.019Z,25.05
2022-08-28T04:38:06.022Z,25.13
2022-08-28T04:40:40.425Z,25.18
2022-08-28T04:43:09.480Z,25.21
2022-08-28T04:45:41.531Z,25.20
2022-08-28T04:48:10.507Z,25.17
2022-08-28T04:50:42.047Z,25.17
2022-08-28T04:53:10.382Z,25.21
2022-08-28T04:55:53.768Z,25.25
2022-08-28T04:58:24.100Z,25.29
2022-08-28T05:00:53.616Z,25.30
2022-08-28T05:03:22.758Z,25.36
2022-08-28T05:05:52.746Z,25.41
2022-08-28T05:08:22.192Z,25.43
2022-08-28T05:10:53.693Z,25.50
2022-08-28T05:13:22.969Z,25.52
2022-08-28T05:15:52.348Z,25.57
2022-08-28T05:18:22.934Z,25.58
2022-08-28T05:20:51.096Z,25.59
2022-08-28T05:23:19.841Z,25.54
2022-08-28T05:25:52.420Z,25.51
2022-08-28T05:28:20.908Z,25.50
2022-08-28T05:30:49.128Z,25.47
2022-08-28T05:33:17.920Z,25.44
2022-08-28T05:35:47.831Z,25.42
2022-08-28T05:38:17.151Z,25.42
2022-08-28T05:40:46.240Z,25.37
2022-08-28T05:43:16.801Z,25.31
2022-08-28T05:45:45.774Z,25.26
2022-08-28T05:48:14.855Z,25.23
2022-08-28T05:50:47.476Z,25.22
2022-08-28T05:53:17.454Z,25.27
2022-08-28T05:55:51.636Z,25.36
2022-08-28T05:58:32.009Z,25.46
2022-08-28T06:01:08.473Z,25.57
2022-08-28T06:03:37.667Z,25.62
2022-08-28T06:06:07.101Z,25.69
2022-08-28T06:08:35.510Z,25.80
2022-08-28T06:11:05.446Z,25.91
2022-08-28T06:13:37.850Z,25.98
2022-08-28T06:16:08.041Z,26.13
2022-08-28T06:18:36.791Z,26.18
2022-08-28T06:21:05.266Z,26.19
2022-08-28T06:23:33.654Z,26.28
2022-08-28T06:26:02.434Z,26.48
2022-08-28T06:28:30.916Z,26.66
2022-08-28T06:31:23.393Z,26.84
2022-08-28T06:33:52.155Z,26.97
2022-08-28T06:36:20.754Z,27.08
2022-08-28T06:38:49.585Z,27.22
2022-08-28T06:41:18.955Z,27.36
2022-08-28T06:43:47.131Z,27.50
2022-08-28T06:46:19.969Z,27.51
2022-08-28T06:48:48.369Z,27.56
2022-08-28T06:51:17.267Z,27.62
2022-08-28T06:53:46.577Z,27.62
2022-08-28T06:56:26.793Z,27.66
2022-08-28T06:59:04.534Z,27.90
2022-08-28T07:01:41.381Z,28.16
2022-08-28T07:04:11.324Z,28.39
2022-08-28T07:06:41.364Z,28.63
2022-08-28T07:09:11.421Z,28.81
2022-08-28T07:11:40.870Z,28.83
2022-08-28T07:14:10.348Z,28.84
2022-08-28T07:16:41.211Z,28.92
2022-08-28T07:19:12.126Z,29.01
2022-08-28T07:21:42.011Z,29.20
2022-08-28T07:24:11.200Z,29.30
2022-08-28T07:26:42.432Z,29.41
2022-08-28T07:29:11.783Z,29.36
2022-08-28T07:31:43.786Z,29.30
2022-08-28T07:34:13.471Z,29.26
2022-08-28T07:36:42.365Z,29.30
2022-08-28T07:39:11.652Z,29.37
2022-08-28T07:41:43.351Z,29.44
2022-08-28T07:44:30.492Z,29.43
2022-08-28T07:47:02.655Z,29.49
2022-08-28T07:49:31.748Z,29.55
2022-08-28T07:52:00.569Z,29.62
2022-08-28T07:54:30.191Z,29.61
2022-08-28T07:56:59.321Z,29.65
2022-08-28T07:59:36.614Z,29.72
2022-08-28T08:02:08.365Z,29.78
2022-08-28T08:04:37.397Z,29.87
2022-08-28T08:07:06.204Z,30.03
2022-08-28T08:09:38.494Z,30.17
2022-08-28T08:12:10.404Z,30.33
2022-08-28T08:14:39.118Z,30.59
2022-08-28T08:17:10.335Z,30.92
2022-08-28T08:19:38.935Z,31.15
2022-08-28T08:22:08.251Z,31.31
2022-08-28T08:24:36.777Z,31.56
2022-08-28T08:27:07.015Z,31.81
2022-08-28T08:29:38.018Z,32.11
2022-08-28T08:32:08.582Z,32.40
2022-08-28T08:34:40.343Z,32.71
2022-08-28T08:37:09.526Z,32.87
2022-08-28T08:39:39.211Z,32.97
2022-08-28T08:42:10.250Z,33.12
2022-08-28T08:44:41.564Z,33.37
2022-08-28T08:47:14.973Z,33.47
2022-08-28T08:50:00.179Z,33.48
2022-08-28T08:52:41.767Z,33.45
2022-08-28T08:55:26.241Z,33.45
2022-08-28T08:58:09.231Z,33.42
2022-08-28T09:00:48.120Z,33.35
2022-08-28T09:03:22.765Z,33.30
2022-08-28T09:05:55.270Z,33.06
2022-08-28T09:08:28.506Z,32.98
2022-08-28T09:11:02.491Z,33.12
2022-08-28T09:13:36.238Z,33.20
2022-08-28T09:16:14.752Z,33.07
2022-08-28T09:18:59.057Z,33.14
2022-08-28T09:21:35.522Z,33.05
2022-08-28T09:24:10.831Z,33.01
2022-08-28T09:26:45.799Z,32.96
2022-08-28T09:29:33.376Z,33.06
2022-08-28T09:32:22.205Z,33.15
2022-08-28T09:35:12.450Z,33.24
2022-08-28T09:37:44.216Z,33.33
2022-08-28T09:40:18.245Z,33.38
2022-08-28T09:43:18.257Z,33.27
2022-08-28T09:45:48.786Z,33.18
2022-08-28T09:48:22.147Z,33.20
2022-08-28T09:51:07.189Z,33.14
2022-08-28T09:53:40.527Z,33.20
2022-08-28T09:56:17.068Z,33.40
2022-08-28T09:58:46.555Z,33.56
2022-08-28T10:01:25.771Z,33.80
2022-08-28T10:04:00.398Z,33.98
2022-08-28T10:06:32.738Z,34.08
2022-08-28T10:09:11.713Z,34.22
2022-08-28T10:11:44.569Z,34.79
2022-08-28T10:14:18.921Z,35.46
2022-08-28T10:16:55.213Z,36.34
2022-08-28T10:19:30.399Z,37.28
2022-08-28T10:22:05.042Z,38.28
2022-08-28T10:24:44.324Z,39.27
2022-08-28T10:27:20.963Z,40.01
2022-08-28T10:29:55.687Z,40.82
2022-08-28T10:32:35.598Z,41.51
2022-08-28T10:35:08.795Z,41.75
2022-08-28T10:37:47.166Z,41.92
2022-08-28T10:40:19.981Z,42.26
2022-08-28T10:42:52.007Z,42.28
2022-08-28T10:45:24.657Z,41.73
2022-08-28T10:47:53.899Z,41.22
2022-08-28T10:50:25.945Z,40.74
2022-08-28T10:52:58.231Z,40.18
2022-08-28T10:55:34.899Z,39.72
2022-08-28T10:58:24.037Z,39.48
2022-08-28T11:00:57.868Z,39.41
2022-08-28T11:03:36.423Z,40.18
2022-08-28T11:06:13.820Z,41.52
2022-08-28T11:08:42.790Z,43.04
2022-08-28T11:11:16.359Z,44.43
2022-08-28T11:13:57.566Z,45.22
2022-08-28T11:16:28.588Z,45.29
2022-08-28T11:19:17.911Z,44.52
2022-08-28T11:24:44.552Z,43.00
2022-08-28T11:27:36.117Z,42.11
2022-08-28T11:30:25.965Z,40.94
2022-08-28T11:33:10.069Z,39.61
2022-08-28T11:35:42.470Z,38.75
2022-08-28T11:38:18.416Z,38.12
2022-08-28T11:40:53.652Z,37.47
2022-08-28T11:43:34.962Z,36.75
2022-08-28T11:46:26.876Z,36.26
2022-08-28T11:48:58.429Z,35.96
2022-08-28T11:51:37.482Z,35.78
2022-08-28T11:54:13.157Z,35.59
2022-08-28T11:56:51.676Z,35.42
2022-08-28T11:59:39.718Z,35.35
2022-08-28T12:02:28.243Z,35.44
2022-08-28T12:04:59.151Z,35.63
2022-08-28T12:07:36.068Z,35.98
2022-08-28T12:10:05.468Z,36.31
2022-08-28T12:12:54.585Z,36.80
2022-08-28T12:15:38.866Z,37.49
2022-08-28T12:18:09.389Z,38.18
2022-08-28T12:20:56.358Z,38.94
2022-08-28T12:23:38.954Z,39.86
2022-08-28T12:26:10.273Z,39.78
2022-08-28T12:28:47.274Z,39.36
2022-08-28T12:31:45.334Z,38.69
2022-08-28T12:34:19.308Z,38.10
2022-08-28T12:36:52.150Z,37.76
2022-08-28T12:39:23.554Z,37.49
2022-08-28T12:41:52.377Z,37.15
2022-08-28T12:44:24.869Z,36.92
2022-08-28T12:46:54.301Z,36.75
2022-08-28T12:49:31.477Z,36.71
2022-08-28T12:52:11.521Z,36.77
2022-08-28T12:54:47.284Z,36.83
2022-08-28T12:57:18.211Z,36.92
2022-08-28T12:59:47.831Z,37.20
2022-08-28T13:02:22.999Z,37.68
2022-08-28T13:04:57.422Z,38.10
2022-08-28T13:07:29.508Z,38.31
2022-08-28T13:10:01.519Z,38.45
2022-08-28T13:12:55.092Z,38.68
2022-08-28T13:15:43.205Z,38.64
2022-08-28T13:18:12.624Z,38.72
2022-08-28T13:20:42.216Z,38.87
2022-08-28T13:23:29.601Z,38.95
2022-08-28T13:26:17.400Z,38.84
2022-08-28T13:28:59.845Z,38.58
2022-08-28T13:31:32.760Z,38.27
2022-08-28T13:34:21.301Z,38.04
2022-08-28T13:36:52.775Z,37.85
2022-08-28T13:39:23.487Z,37.85
2022-08-28T13:41:55.856Z,37.81
2022-08-28T13:44:28.504Z,37.62
2022-08-28T13:46:57.487Z,37.39
2022-08-28T13:49:28.475Z,37.08
2022-08-28T13:51:59.538Z,36.89
2022-08-28T13:54:29.496Z,36.94
2022-08-28T14:00:52.075Z,37.25
2022-08-28T14:03:40.721Z,37.08
2022-08-28T14:06:11.796Z,36.88
2022-08-28T14:08:41.493Z,36.64
2022-08-28T14:11:12.860Z,36.48
2022-08-28T14:13:46.949Z,36.23
2022-08-28T14:16:27.194Z,36.03
2022-08-28T14:18:56.257Z,35.88
2022-08-28T14:21:26.687Z,35.75
2022-08-28T14:23:55.837Z,35.63
2022-08-28T14:26:24.358Z,35.51
2022-08-28T14:28:53.491Z,35.10
2022-08-28T14:31:26.378Z,34.90
2022-08-28T14:33:59.187Z,34.64
2022-08-28T14:36:30.035Z,34.41
2022-08-28T14:39:02.812Z,34.17
2022-08-28T14:41:34.694Z,33.97
2022-08-28T14:44:03.856Z,33.74
2022-08-28T14:46:34.171Z,33.56
2022-08-28T14:49:06.275Z,33.44
2022-08-28T14:51:35.951Z,33.27
2022-08-28T14:54:05.297Z,33.16
2022-08-28T14:56:33.923Z,32.97
2022-08-28T14:59:16.724Z,32.78
2022-08-28T15:01:48.127Z,32.57
2022-08-28T15:04:19.998Z,32.40
2022-08-28T15:06:49.062Z,32.24
2022-08-28T15:09:18.036Z,32.13
2022-08-28T15:11:53.011Z,31.92
2022-08-28T15:20:32.271Z,31.37
2022-08-28T15:23:08.029Z,31.28
2022-08-28T15:25:43.284Z,31.12
2022-08-28T15:28:20.129Z,30.95
2022-08-28T15:30:52.465Z,30.78
2022-08-28T15:33:21.321Z,30.64
2022-08-28T15:35:57.107Z,30.54
2022-08-28T15:38:26.526Z,30.47
2022-08-28T15:41:13.460Z,30.40
2022-08-28T15:43:43.064Z,30.24
2022-08-28T15:46:16.613Z,30.23
2022-08-28T15:48:48.621Z,30.20
2022-08-28T15:52:20.834Z,30.11
2022-08-28T15:54:56.239Z,29.99
2022-08-28T15:57:29.721Z,29.90
2022-08-28T15:59:58.436Z,29.83
2022-08-28T16:02:28.326Z,29.76
2022-08-28T16:04:58.491Z,29.63
2022-08-28T16:07:27.982Z,29.53
2022-08-28T16:09:59.134Z,29.44
2022-08-28T16:12:33.860Z,29.28
2022-08-28T16:15:02.947Z,29.14
2022-08-28T16:17:32.136Z,28.99
2022-08-28T16:20:01.653Z,28.86
2022-08-28T16:26:29.757Z,28.54
2022-08-28T16:29:22.764Z,28.38
2022-08-28T16:32:27.893Z,28.23
2022-08-28T16:38:48.656Z,27.87
2022-08-28T16:41:35.604Z,27.77
2022-08-28T16:44:04.779Z,27.74
2022-08-28T16:47:21.736Z,27.73
2022-08-28T16:49:50.933Z,27.70
2022-08-28T16:52:22.255Z,27.71
2022-08-28T16:55:27.703Z,27.75
2022-08-28T16:57:58.175Z,27.71
2022-08-28T17:00:28.009Z,27.70
2022-08-28T17:02:57.070Z,27.69
2022-08-28T17:05:26.949Z,27.66
2022-08-28T17:07:57.782Z,27.64
2022-08-28T17:10:27.336Z,27.63
2022-08-28T17:12:56.807Z,27.46
2022-08-28T17:15:28.477Z,27.64
2022-08-28T17:17:58.300Z,27.63
2022-08-28T17:20:44.688Z,27.62
2022-08-28T17:23:13.783Z,27.65
2022-08-28T17:25:42.675Z,27.62
2022-08-28T17:28:11.971Z,27.64
2022-08-28T17:30:42.484Z,27.65
2022-08-28T17:33:10.905Z,27.63
2022-08-28T17:35:41.865Z,27.55
2022-08-28T17:38:11.191Z,27.54
2022-08-28T17:40:40.338Z,27.52
2022-08-28T17:43:08.967Z,27.49
2022-08-28T17:45:38.076Z,27.46
2022-08-28T17:48:08.880Z,27.45
2022-08-28T17:50:38.687Z,27.38
2022-08-28T17:53:07.220Z,27.38
2022-08-28T17:55:35.964Z,27.32
2022-08-28T17:58:05.816Z,27.29
2022-08-28T18:00:34.920Z,27.24
2022-08-28T18:03:04.176Z,27.21
2022-08-28T18:05:34.195Z,27.15
2022-08-28T18:08:02.819Z,27.14
2022-08-28T18:10:34.176Z,27.10
2022-08-28T18:13:02.553Z,27.09
2022-08-28T18:15:30.980Z,27.06
2022-08-28T18:17:59.645Z,27.04
2022-08-28T18:20:29.443Z,27.03
2022-08-28T18:23:00.484Z,27.06
2022-08-28T18:25:50.644Z,27.06
2022-08-28T18:28:22.353Z,27.06
2022-08-28T18:30:52.316Z,27.05
2022-08-28T18:33:22.391Z,27.04
2022-08-28T18:35:51.100Z,27.09
2022-08-28T18:38:23.384Z,27.07
2022-08-28T18:40:52.086Z,27.05
2022-08-28T18:43:22.455Z,27.03
2022-08-28T18:45:57.597Z,27.02
2022-08-28T18:48:26.887Z,26.98
2022-08-28T18:50:56.254Z,26.94
2022-08-28T18:53:29.238Z,26.96
2022-08-28T18:56:00.651Z,26.92
2022-08-28T18:58:32.510Z,26.92
2022-08-28T19:01:02.424Z,26.93
2022-08-28T19:03:31.230Z,26.92
2022-08-28T19:05:59.901Z,26.89
2022-08-28T19:08:30.501Z,26.84
2022-08-28T19:11:02.935Z,26.80
2022-08-28T19:13:31.645Z,26.80
2022-08-28T19:16:00.634Z,26.82
2022-08-28T19:18:30.479Z,26.80
2022-08-28T19:21:08.019Z,26.78
2022-08-28T19:23:38.629Z,26.78
2022-08-28T19:26:10.633Z,26.76
2022-08-28T19:28:40.888Z,26.67
2022-08-28T19:31:13.753Z,26.65
2022-08-28T19:33:43.695Z,26.63
2022-08-28T19:36:12.744Z,26.60
2022-08-28T19:38:43.289Z,26.60
2022-08-28T19:41:14.776Z,26.54
2022-08-28T19:43:44.666Z,26.50
2022-08-28T19:46:19.655Z,26.49
2022-08-28T19:48:49.200Z,26.47
2022-08-28T19:51:22.536Z,26.42
2022-08-28T19:53:57.776Z,26.40
2022-08-28T19:56:27.800Z,26.36
2022-08-28T19:58:57.130Z,26.29
2022-08-28T20:01:25.839Z,26.25
2022-08-28T20:03:54.867Z,26.21
2022-08-28T20:06:23.757Z,26.17
2022-08-28T20:08:54.511Z,26.12
2022-08-28T20:11:25.611Z,26.05
2022-08-28T20:14:04.405Z,26.01
2022-08-28T20:16:35.011Z,25.93
2022-08-28T20:19:04.476Z,25.84
2022-08-28T20:21:37.358Z,25.74
2022-08-28T20:24:09.914Z,25.67
2022-08-28T20:26:39.351Z,25.58
2022-08-28T20:29:10.825Z,25.52
2022-08-28T20:31:43.851Z,25.49
2022-08-28T20:34:14.308Z,25.46
2022-08-28T20:36:43.231Z,25.42
2022-08-28T20:39:13.899Z,25.38
2022-08-28T20:41:43.386Z,25.39
2022-08-28T20:44:13.784Z,25.37
2022-08-28T20:46:43.231Z,25.35
2022-08-28T20:49:13.001Z,25.31
2022-08-28T20:52:01.340Z,25.27
2022-08-28T20:54:39.476Z,25.23
2022-08-28T20:57:17.452Z,25.18
2022-08-28T20:59:50.195Z,25.11
2022-08-28T21:02:20.505Z,25.04
2022-08-28T21:04:49.622Z,25.02
2022-08-28T21:07:19.697Z,25.00
2022-08-28T21:10:05.589Z,24.95
2022-08-28T21:12:36.249Z,24.91
2022-08-28T21:15:05.896Z,24.87
2022-08-28T21:17:34.446Z,24.80
2022-08-28T21:20:04.474Z,24.75
2022-08-28T21:22:34.567Z,24.70
2022-08-28T21:25:06.490Z,24.65
2022-08-28T21:27:36.580Z,24.60
2022-08-28T21:30:07.705Z,24.55
2022-08-28T21:32:36.700Z,24.50
2022-08-28T21:35:07.353Z,24.45
2022-08-28T21:37:36.274Z,24.46
2022-08-28T21:40:07.923Z,24.44
2022-08-28T21:42:36.847Z,24.41
2022-08-28T21:45:11.235Z,24.35
2022-08-28T21:47:41.465Z,24.27
2022-08-28T21:50:11.670Z,24.17
2022-08-28T21:52:41.004Z,24.05
2022-08-28T21:55:12.699Z,23.90
2022-08-28T21:57:41.792Z,23.77
2022-08-28T22:00:13.953Z,23.66
2022-08-28T22:02:47.479Z,23.55
2022-08-28T22:05:20.881Z,23.49
2022-08-28T22:07:50.063Z,23.44
2022-08-28T22:10:20.395Z,23.36
2022-08-28T22:12:50.265Z,23.35
2022-08-28T22:15:18.927Z,23.37
2022-08-28T22:17:47.589Z,23.38
2022-08-28T22:20:16.128Z,23.41
2022-08-28T22:23:01.787Z,23.43
2022-08-28T22:25:32.032Z,23.46
2022-08-28T22:28:11.923Z,23.53
2022-08-28T22:30:40.435Z,23.57
2022-08-28T22:33:10.942Z,23.54
2022-08-28T22:35:42.177Z,23.54
2022-08-28T22:38:13.092Z,23.52
2022-08-28T22:40:43.662Z,23.43
2022-08-28T22:43:12.659Z,23.37
2022-08-28T22:45:40.919Z,23.28
2022-08-28T22:48:10.491Z,23.24
2022-08-28T22:50:38.971Z,23.22
2022-08-28T22:53:09.121Z,23.19
2022-08-28T22:55:41.433Z,23.08
2022-08-28T22:58:14.403Z,22.95
2022-08-28T23:00:44.218Z,22.90
2022-08-28T23:03:13.203Z,22.82
2022-08-28T23:05:42.380Z,22.73
2022-08-28T23:08:11.687Z,22.73
2022-08-28T23:10:57.935Z,22.70
2022-08-28T23:13:28.743Z,22.64
2022-08-28T23:15:57.372Z,22.63
2022-08-28T23:18:27.759Z,22.63
2022-08-28T23:20:56.912Z,22.64
2022-08-28T23:23:26.707Z,22.62
2022-08-28T23:25:55.454Z,22.61
2022-08-28T23:31:28.282Z,22.57
2022-08-28T23:33:56.659Z,22.54
2022-08-28T23:36:25.978Z,22.49
2022-08-28T23:38:54.501Z,22.47
2022-08-28T23:41:23.969Z,22.45
2022-08-28T23:43:52.657Z,22.39
2022-08-28T23:46:21.824Z,22.37
2022-08-28T23:48:52.467Z,22.37
2022-08-28T23:51:22.109Z,22.36
2022-08-28T23:53:51.372Z,22.33
2022-08-28T23:56:20.292Z,22.29
2022-08-28T23:58:51.017Z,22.30
